Pratt, Minnesota
Current Conditions -  °F | °C
As of 12:15 AM on Saturday 29 Nov 2014 (Local Time) from KOWA Reporting Station
Clear Clear  
Wind Chill: -11°   Ceiling: Unl
Heat Index: -4°   Visibility: 7mi
Dew Point: -6°   Wind: 14mph
Humidity: 86%   Direction: 120°ESE
Pressure: 29.63"   Gusts: NA
Location:  44.0575°N, 93.2082°W
Report Text: KOWA 290615Z AUTO 12012KT 7SM CLR M04/M06 A2963 RMK AO2
Loading
Personal Weather Stations






























Interactive Weather Map New forecast layout! Learn more

10-Day Weather Forecast

Advertisements
Track Severe Weather on mobile